KCGZ

Casa Grande Municipal Airport

Casa Grande, Arizona, USA
METAR KCGZ 160556Z AUTO 21006KT 10SM CLR 28/22 A2995 RMK AO2 SLP127 6//// T02830217 10333 20283 53014 PNO $
Observed Flight Rules
Aug-16 @ 05:56 UTC (20 minutes ago) Visual Flight Rules
Wind Visibility Clouds
210° at 6 knots 10 miles
  • Clear skies
Temperatures Readings
Current 28°C / 82°F
Dewpoint 22°C / 72°F
Humidity 70%
Altimeter 29.95" Hg
Pressure 1012.7 hPa
Elevation 446
METAR KCGZ 160556Z AUTO 21006KT 10SM CLR 28/22 A2995 RMK AO2 SLP127 6//// T02830217 10333 20283 53014 PNO $
Observed Flight Rules
Aug-16 @ 05:56 UTC
(20 minutes ago)
VFR
Wind Visibility
210° at 6 knots 10 miles
Clouds
  • Clear skies
Temperature Dewpoint
28°C / 82°F 22°C / 72°F
Humidity Altimeter Pressure
70% 29.95" Hg 1012.7 hPa